sensor_id;sensor_type;location;lat;lon;timestamp;temperature;humidity
33382;DHT22;21342;48.786;9.166;2022-07-22T00:00:42;22.00;99.90
33382;DHT22;21342;48.786;9.166;2022-07-22T00:03:10;22.10;99.90
33382;DHT22;21342;48.786;9.166;2022-07-22T00:05:37;22.10;99.90
33382;DHT22;21342;48.786;9.166;2022-07-22T00:08:04;22.00;99.90
33382;DHT22;21342;48.786;9.166;2022-07-22T00:10:32;21.90;99.90
33382;DHT22;21342;48.786;9.166;2022-07-22T00:13:00;21.70;99.90
33382;DHT22;21342;48.786;9.166;2022-07-22T00:15:28;21.70;99.90
33382;DHT22;21342;48.786;9.166;2022-07-22T00:17:55;21.70;99.90
33382;DHT22;21342;48.786;9.166;2022-07-22T00:20:22;21.90;99.90
33382;DHT22;21342;48.786;9.166;2022-07-22T00:22:49;22.00;99.90
33382;DHT22;21342;48.786;9.166;2022-07-22T00:25:16;21.90;99.90
33382;DHT22;21342;48.786;9.166;2022-07-22T00:27:44;22.00;99.90
33382;DHT22;21342;48.786;9.166;2022-07-22T00:30:13;21.90;99.90
33382;DHT22;21342;48.786;9.166;2022-07-22T00:32:40;21.70;99.90
33382;DHT22;21342;48.786;9.166;2022-07-22T00:35:07;21.70;99.90
33382;DHT22;21342;48.786;9.166;2022-07-22T00:37:34;21.50;99.90
33382;DHT22;21342;48.786;9.166;2022-07-22T00:40:02;21.60;99.90
33382;DHT22;21342;48.786;9.166;2022-07-22T00:42:29;21.60;99.90
33382;DHT22;21342;48.786;9.166;2022-07-22T00:44:56;21.60;99.90
33382;DHT22;21342;48.786;9.166;2022-07-22T00:47:25;21.50;99.90
33382;DHT22;21342;48.786;9.166;2022-07-22T00:49:52;21.60;99.90
33382;DHT22;21342;48.786;9.166;2022-07-22T00:52:19;21.60;99.90
33382;DHT22;21342;48.786;9.166;2022-07-22T00:54:47;21.60;99.90
33382;DHT22;21342;48.786;9.166;2022-07-22T00:57:14;21.50;99.90
33382;DHT22;21342;48.786;9.166;2022-07-22T00:59:41;21.50;99.90
33382;DHT22;21342;48.786;9.166;2022-07-22T01:02:09;21.50;99.90
33382;DHT22;21342;48.786;9.166;2022-07-22T01:04:38;21.50;99.90
33382;DHT22;21342;48.786;9.166;2022-07-22T01:07:06;21.40;99.90
33382;DHT22;21342;48.786;9.166;2022-07-22T01:09:34;21.30;99.90
33382;DHT22;21342;48.786;9.166;2022-07-22T01:12:01;21.30;99.90
33382;DHT22;21342;48.786;9.166;2022-07-22T01:14:29;21.20;99.90
33382;DHT22;21342;48.786;9.166;2022-07-22T01:16:56;21.20;99.90
33382;DHT22;21342;48.786;9.166;2022-07-22T01:19:23;21.20;99.90
33382;DHT22;21342;48.786;9.166;2022-07-22T01:21:52;21.20;99.90
33382;DHT22;21342;48.786;9.166;2022-07-22T01:24:19;21.20;99.90
33382;DHT22;21342;48.786;9.166;2022-07-22T01:26:47;21.30;99.90
33382;DHT22;21342;48.786;9.166;2022-07-22T01:29:14;21.30;99.90
33382;DHT22;21342;48.786;9.166;2022-07-22T01:31:41;21.30;99.90
33382;DHT22;21342;48.786;9.166;2022-07-22T01:34:08;21.20;99.90
33382;DHT22;21342;48.786;9.166;2022-07-22T01:36:35;21.30;99.90
33382;DHT22;21342;48.786;9.166;2022-07-22T01:39:04;21.30;99.90
33382;DHT22;21342;48.786;9.166;2022-07-22T01:41:31;21.40;99.90
33382;DHT22;21342;48.786;9.166;2022-07-22T01:44:03;21.40;99.90
33382;DHT22;21342;48.786;9.166;2022-07-22T01:46:30;21.30;99.90
33382;DHT22;21342;48.786;9.166;2022-07-22T01:48:57;21.10;99.90
33382;DHT22;21342;48.786;9.166;2022-07-22T01:51:25;21.10;99.90
33382;DHT22;21342;48.786;9.166;2022-07-22T01:53:52;21.30;99.90
33382;DHT22;21342;48.786;9.166;2022-07-22T01:56:20;21.40;99.90
33382;DHT22;21342;48.786;9.166;2022-07-22T01:58:47;21.40;99.90
33382;DHT22;21342;48.786;9.166;2022-07-22T02:01:15;21.20;99.90
33382;DHT22;21342;48.786;9.166;2022-07-22T02:03:42;21.00;99.90
33382;DHT22;21342;48.786;9.166;2022-07-22T02:06:09;21.20;99.90
33382;DHT22;21342;48.786;9.166;2022-07-22T02:08:36;21.20;99.90
33382;DHT22;21342;48.786;9.166;2022-07-22T02:11:03;21.00;99.90
33382;DHT22;21342;48.786;9.166;2022-07-22T02:13:32;20.90;99.90
33382;DHT22;21342;48.786;9.166;2022-07-22T02:15:59;21.00;99.90
33382;DHT22;21342;48.786;9.166;2022-07-22T02:18:26;21.00;99.90
33382;DHT22;21342;48.786;9.166;2022-07-22T02:20:53;21.00;99.90
33382;DHT22;21342;48.786;9.166;2022-07-22T02:23:20;21.00;99.90
33382;DHT22;21342;48.786;9.166;2022-07-22T02:25:48;20.80;99.90
33382;DHT22;21342;48.786;9.166;2022-07-22T02:28:15;20.70;99.90
33382;DHT22;21342;48.786;9.166;2022-07-22T02:30:43;20.80;99.90
33382;DHT22;21342;48.786;9.166;2022-07-22T02:33:11;20.70;99.90
33382;DHT22;21342;48.786;9.166;2022-07-22T02:35:38;20.70;99.90
33382;DHT22;21342;48.786;9.166;2022-07-22T02:38:05;20.70;99.90
33382;DHT22;21342;48.786;9.166;2022-07-22T02:40:32;20.70;99.90
33382;DHT22;21342;48.786;9.166;2022-07-22T02:43:00;20.70;99.90
33382;DHT22;21342;48.786;9.166;2022-07-22T02:45:27;20.70;99.90
33382;DHT22;21342;48.786;9.166;2022-07-22T02:47:56;20.70;99.90
33382;DHT22;21342;48.786;9.166;2022-07-22T02:50:24;20.70;99.90
33382;DHT22;21342;48.786;9.166;2022-07-22T02:52:51;20.60;99.90
33382;DHT22;21342;48.786;9.166;2022-07-22T02:55:19;20.50;99.90
33382;DHT22;21342;48.786;9.166;2022-07-22T02:57:46;20.60;99.90
33382;DHT22;21342;48.786;9.166;2022-07-22T03:00:14;20.60;99.90
33382;DHT22;21342;48.786;9.166;2022-07-22T03:02:42;20.50;99.90
33382;DHT22;21342;48.786;9.166;2022-07-22T03:05:10;20.40;99.90
33382;DHT22;21342;48.786;9.166;2022-07-22T03:07:38;20.30;99.90
33382;DHT22;21342;48.786;9.166;2022-07-22T03:10:05;20.30;99.90
33382;DHT22;21342;48.786;9.166;2022-07-22T03:12:34;20.30;99.90
33382;DHT22;21342;48.786;9.166;2022-07-22T03:15:01;20.40;99.90
33382;DHT22;21342;48.786;9.166;2022-07-22T03:17:28;20.30;99.90
33382;DHT22;21342;48.786;9.166;2022-07-22T03:19:55;20.10;99.90
33382;DHT22;21342;48.786;9.166;2022-07-22T03:22:24;19.90;99.90
33382;DHT22;21342;48.786;9.166;2022-07-22T03:24:51;19.90;99.90
33382;DHT22;21342;48.786;9.166;2022-07-22T03:27:18;19.80;99.90
33382;DHT22;21342;48.786;9.166;2022-07-22T03:29:45;19.80;99.90
33382;DHT22;21342;48.786;9.166;2022-07-22T03:32:12;19.80;99.90
33382;DHT22;21342;48.786;9.166;2022-07-22T03:34:39;19.80;99.90
33382;DHT22;21342;48.786;9.166;2022-07-22T03:37:11;19.90;99.90
33382;DHT22;21342;48.786;9.166;2022-07-22T03:39:40;20.00;99.90
33382;DHT22;21342;48.786;9.166;2022-07-22T03:42:07;19.90;99.90
33382;DHT22;21342;48.786;9.166;2022-07-22T03:44:34;19.70;99.90
33382;DHT22;21342;48.786;9.166;2022-07-22T03:47:01;19.60;99.90
33382;DHT22;21342;48.786;9.166;2022-07-22T03:49:29;19.60;99.90
33382;DHT22;21342;48.786;9.166;2022-07-22T03:51:57;19.60;99.90
33382;DHT22;21342;48.786;9.166;2022-07-22T03:54:24;19.60;99.90
33382;DHT22;21342;48.786;9.166;2022-07-22T03:56:52;19.60;99.90
33382;DHT22;21342;48.786;9.166;2022-07-22T03:59:20;19.60;99.90
33382;DHT22;21342;48.786;9.166;2022-07-22T04:01:47;19.70;99.90
33382;DHT22;21342;48.786;9.166;2022-07-22T04:04:14;19.70;99.90
33382;DHT22;21342;48.786;9.166;2022-07-22T04:06:41;19.70;99.90
33382;DHT22;21342;48.786;9.166;2022-07-22T04:09:08;19.80;99.90
33382;DHT22;21342;48.786;9.166;2022-07-22T04:11:35;19.80;99.90
33382;DHT22;21342;48.786;9.166;2022-07-22T04:14:04;19.80;99.90
33382;DHT22;21342;48.786;9.166;2022-07-22T04:16:31;19.80;99.90
33382;DHT22;21342;48.786;9.166;2022-07-22T04:18:58;19.70;99.90
33382;DHT22;21342;48.786;9.166;2022-07-22T04:21:25;19.70;99.90
33382;DHT22;21342;48.786;9.166;2022-07-22T04:23:53;19.60;99.90
33382;DHT22;21342;48.786;9.166;2022-07-22T04:26:20;19.60;99.90
33382;DHT22;21342;48.786;9.166;2022-07-22T04:28:47;19.50;99.90
33382;DHT22;21342;48.786;9.166;2022-07-22T04:31:16;19.60;99.90
33382;DHT22;21342;48.786;9.166;2022-07-22T04:33:43;19.60;99.90
33382;DHT22;21342;48.786;9.166;2022-07-22T04:36:10;19.60;99.90
33382;DHT22;21342;48.786;9.166;2022-07-22T04:38:37;19.70;99.90
33382;DHT22;21342;48.786;9.166;2022-07-22T04:41:05;19.70;99.90
33382;DHT22;21342;48.786;9.166;2022-07-22T04:43:32;19.80;99.90
33382;DHT22;21342;48.786;9.166;2022-07-22T04:45:59;19.80;99.90
33382;DHT22;21342;48.786;9.166;2022-07-22T04:48:28;19.90;99.90
33382;DHT22;21342;48.786;9.166;2022-07-22T04:50:58;19.90;99.90
33382;DHT22;21342;48.786;9.166;2022-07-22T04:53:26;19.90;99.90
33382;DHT22;21342;48.786;9.166;2022-07-22T04:55:53;20.00;99.90
33382;DHT22;21342;48.786;9.166;2022-07-22T04:58:21;20.00;99.90
33382;DHT22;21342;48.786;9.166;2022-07-22T05:00:48;20.00;99.90
33382;DHT22;21342;48.786;9.166;2022-07-22T05:03:15;20.10;99.90
33382;DHT22;21342;48.786;9.166;2022-07-22T05:05:45;20.10;99.90
33382;DHT22;21342;48.786;9.166;2022-07-22T05:08:12;20.00;99.90
33382;DHT22;21342;48.786;9.166;2022-07-22T05:10:40;19.90;99.90
33382;DHT22;21342;48.786;9.166;2022-07-22T05:13:07;19.90;99.90
33382;DHT22;21342;48.786;9.166;2022-07-22T05:15:34;19.90;99.90
33382;DHT22;21342;48.786;9.166;2022-07-22T05:18:01;19.80;99.90
33382;DHT22;21342;48.786;9.166;2022-07-22T05:20:28;19.90;99.90
33382;DHT22;21342;48.786;9.166;2022-07-22T05:22:57;19.90;99.90
33382;DHT22;21342;48.786;9.166;2022-07-22T05:25:24;19.80;99.90
33382;DHT22;21342;48.786;9.166;2022-07-22T05:27:53;19.90;99.90
33382;DHT22;21342;48.786;9.166;2022-07-22T05:30:20;20.00;99.90
33382;DHT22;21342;48.786;9.166;2022-07-22T05:32:48;20.20;99.90
33382;DHT22;21342;48.786;9.166;2022-07-22T05:35:15;20.30;99.90
33382;DHT22;21342;48.786;9.166;2022-07-22T05:37:42;20.30;99.90
33382;DHT22;21342;48.786;9.166;2022-07-22T05:40:11;20.30;99.90
33382;DHT22;21342;48.786;9.166;2022-07-22T05:42:39;20.30;99.90
33382;DHT22;21342;48.786;9.166;2022-07-22T05:45:07;20.30;99.90
33382;DHT22;21342;48.786;9.166;2022-07-22T05:47:34;20.10;99.90
33382;DHT22;21342;48.786;9.166;2022-07-22T05:50:02;20.20;99.90
33382;DHT22;21342;48.786;9.166;2022-07-22T05:52:29;20.40;99.90
33382;DHT22;21342;48.786;9.166;2022-07-22T05:54:59;20.40;99.90
33382;DHT22;21342;48.786;9.166;2022-07-22T05:57:28;20.40;99.90
33382;DHT22;21342;48.786;9.166;2022-07-22T05:59:55;20.50;99.90
33382;DHT22;21342;48.786;9.166;2022-07-22T06:02:22;20.40;99.90
33382;DHT22;21342;48.786;9.166;2022-07-22T06:04:49;20.30;99.90
33382;DHT22;21342;48.786;9.166;2022-07-22T06:07:17;20.50;99.90
33382;DHT22;21342;48.786;9.166;2022-07-22T06:09:44;20.50;99.90
33382;DHT22;21342;48.786;9.166;2022-07-22T06:12:12;20.60;99.90
33382;DHT22;21342;48.786;9.166;2022-07-22T06:14:40;20.70;99.90
33382;DHT22;21342;48.786;9.166;2022-07-22T06:17:07;20.80;99.90
33382;DHT22;21342;48.786;9.166;2022-07-22T06:19:35;20.90;99.90
33382;DHT22;21342;48.786;9.166;2022-07-22T06:22:05;21.00;99.90
33382;DHT22;21342;48.786;9.166;2022-07-22T06:24:32;21.00;99.90
33382;DHT22;21342;48.786;9.166;2022-07-22T06:26:59;21.10;99.90
33382;DHT22;21342;48.786;9.166;2022-07-22T06:29:26;21.10;99.90
33382;DHT22;21342;48.786;9.166;2022-07-22T06:31:55;21.00;99.90
33382;DHT22;21342;48.786;9.166;2022-07-22T06:34:22;21.10;99.90
33382;DHT22;21342;48.786;9.166;2022-07-22T06:36:49;21.30;99.90
33382;DHT22;21342;48.786;9.166;2022-07-22T06:39:16;21.30;99.90
33382;DHT22;21342;48.786;9.166;2022-07-22T06:41:43;21.40;99.90
33382;DHT22;21342;48.786;9.166;2022-07-22T06:44:11;21.40;99.90
33382;DHT22;21342;48.786;9.166;2022-07-22T06:46:38;21.50;99.90
33382;DHT22;21342;48.786;9.166;2022-07-22T06:49:07;21.50;99.90
33382;DHT22;21342;48.786;9.166;2022-07-22T06:51:34;21.60;99.90
33382;DHT22;21342;48.786;9.166;2022-07-22T06:54:01;21.70;99.90
33382;DHT22;21342;48.786;9.166;2022-07-22T06:56:28;21.80;99.90
33382;DHT22;21342;48.786;9.166;2022-07-22T06:58:56;21.90;99.90
33382;DHT22;21342;48.786;9.166;2022-07-22T07:01:23;21.90;99.90
33382;DHT22;21342;48.786;9.166;2022-07-22T07:03:50;21.90;99.90
33382;DHT22;21342;48.786;9.166;2022-07-22T07:06:20;22.00;99.90
33382;DHT22;21342;48.786;9.166;2022-07-22T07:08:47;22.00;99.90
33382;DHT22;21342;48.786;9.166;2022-07-22T07:11:14;22.10;99.90
33382;DHT22;21342;48.786;9.166;2022-07-22T07:13:41;22.10;99.90
33382;DHT22;21342;48.786;9.166;2022-07-22T07:16:08;22.00;99.90
33382;DHT22;21342;48.786;9.166;2022-07-22T07:18:36;22.20;99.90
33382;DHT22;21342;48.786;9.166;2022-07-22T07:21:04;22.30;99.90
33382;DHT22;21342;48.786;9.166;2022-07-22T07:23:32;22.70;99.90
33382;DHT22;21342;48.786;9.166;2022-07-22T07:26:00;23.00;99.90
33382;DHT22;21342;48.786;9.166;2022-07-22T07:28:27;23.20;99.90
33382;DHT22;21342;48.786;9.166;2022-07-22T07:30:54;23.30;99.90
33382;DHT22;21342;48.786;9.166;2022-07-22T07:33:21;24.00;99.90
33382;DHT22;21342;48.786;9.166;2022-07-22T07:35:48;24.70;99.90
33382;DHT22;21342;48.786;9.166;2022-07-22T07:38:19;25.70;99.90
33382;DHT22;21342;48.786;9.166;2022-07-22T07:40:48;26.30;99.90
33382;DHT22;21342;48.786;9.166;2022-07-22T07:43:15;26.40;99.90
33382;DHT22;21342;48.786;9.166;2022-07-22T07:45:42;26.20;99.90
33382;DHT22;21342;48.786;9.166;2022-07-22T07:48:10;26.10;99.90
33382;DHT22;21342;48.786;9.166;2022-07-22T07:50:37;26.50;99.90
33382;DHT22;21342;48.786;9.166;2022-07-22T07:53:04;26.60;99.90
33382;DHT22;21342;48.786;9.166;2022-07-22T07:55:31;26.80;99.90
33382;DHT22;21342;48.786;9.166;2022-07-22T07:58:03;27.10;99.90
33382;DHT22;21342;48.786;9.166;2022-07-22T08:00:30;27.90;99.90
33382;DHT22;21342;48.786;9.166;2022-07-22T08:02:58;27.80;99.90
33382;DHT22;21342;48.786;9.166;2022-07-22T08:05:26;27.70;99.90
33382;DHT22;21342;48.786;9.166;2022-07-22T08:07:54;27.90;99.90
33382;DHT22;21342;48.786;9.166;2022-07-22T08:10:21;27.70;99.90
33382;DHT22;21342;48.786;9.166;2022-07-22T08:12:49;28.20;99.90
33382;DHT22;21342;48.786;9.166;2022-07-22T08:15:18;28.60;99.90
33382;DHT22;21342;48.786;9.166;2022-07-22T08:17:45;28.90;99.90
33382;DHT22;21342;48.786;9.166;2022-07-22T08:20:12;29.00;99.90
33382;DHT22;21342;48.786;9.166;2022-07-22T08:22:39;29.30;99.80
33382;DHT22;21342;48.786;9.166;2022-07-22T08:25:06;29.20;99.90
33382;DHT22;21342;48.786;9.166;2022-07-22T08:27:34;29.30;98.70
33382;DHT22;21342;48.786;9.166;2022-07-22T08:30:01;29.80;99.00
33382;DHT22;21342;48.786;9.166;2022-07-22T08:32:31;30.30;99.00
33382;DHT22;21342;48.786;9.166;2022-07-22T08:34:59;30.20;97.00
33382;DHT22;21342;48.786;9.166;2022-07-22T08:37:26;29.80;96.90
33382;DHT22;21342;48.786;9.166;2022-07-22T08:39:53;29.50;97.60
33382;DHT22;21342;48.786;9.166;2022-07-22T08:42:21;30.30;96.30
33382;DHT22;21342;48.786;9.166;2022-07-22T08:44:50;30.90;96.60
33382;DHT22;21342;48.786;9.166;2022-07-22T08:47:21;30.90;94.50
33382;DHT22;21342;48.786;9.166;2022-07-22T08:49:49;31.30;93.90
33382;DHT22;21342;48.786;9.166;2022-07-22T08:52:17;31.20;94.00
33382;DHT22;21342;48.786;9.166;2022-07-22T08:54:44;30.50;94.60
33382;DHT22;21342;48.786;9.166;2022-07-22T08:57:11;30.60;94.00
33382;DHT22;21342;48.786;9.166;2022-07-22T09:02:16;31.40;94.20
33382;DHT22;21342;48.786;9.166;2022-07-22T09:04:56;31.50;93.10
33382;DHT22;21342;48.786;9.166;2022-07-22T09:07:29;31.30;92.00
33382;DHT22;21342;48.786;9.166;2022-07-22T09:09:57;31.40;91.40
33382;DHT22;21342;48.786;9.166;2022-07-22T09:12:25;30.80;91.20
33382;DHT22;21342;48.786;9.166;2022-07-22T09:14:56;30.90;93.10
33382;DHT22;21342;48.786;9.166;2022-07-22T09:17:29;31.60;91.60
33382;DHT22;21342;48.786;9.166;2022-07-22T09:19:59;31.30;91.70
33382;DHT22;21342;48.786;9.166;2022-07-22T09:22:34;31.20;92.30
33382;DHT22;21342;48.786;9.166;2022-07-22T09:25:19;31.70;91.60
33382;DHT22;21342;48.786;9.166;2022-07-22T09:27:47;31.70;91.20
33382;DHT22;21342;48.786;9.166;2022-07-22T09:30:15;31.60;89.70
33382;DHT22;21342;48.786;9.166;2022-07-22T09:32:44;32.20;90.20
33382;DHT22;21342;48.786;9.166;2022-07-22T09:35:12;32.10;88.10
33382;DHT22;21342;48.786;9.166;2022-07-22T09:37:48;32.00;88.80
33382;DHT22;21342;48.786;9.166;2022-07-22T09:40:17;32.80;90.00
33382;DHT22;21342;48.786;9.166;2022-07-22T09:42:47;32.80;88.00
33382;DHT22;21342;48.786;9.166;2022-07-22T09:45:16;32.90;89.10
33382;DHT22;21342;48.786;9.166;2022-07-22T09:47:44;32.10;86.20
33382;DHT22;21342;48.786;9.166;2022-07-22T09:50:18;31.30;86.30
33382;DHT22;21342;48.786;9.166;2022-07-22T09:52:46;32.00;86.60
33382;DHT22;21342;48.786;9.166;2022-07-22T09:55:14;32.50;86.80
33382;DHT22;21342;48.786;9.166;2022-07-22T09:57:42;33.20;84.40
33382;DHT22;21342;48.786;9.166;2022-07-22T10:00:10;33.10;83.10
33382;DHT22;21342;48.786;9.166;2022-07-22T10:02:43;33.20;84.70
33382;DHT22;21342;48.786;9.166;2022-07-22T10:05:12;33.40;81.60
33382;DHT22;21342;48.786;9.166;2022-07-22T10:07:41;32.90;83.20
33382;DHT22;21342;48.786;9.166;2022-07-22T10:10:10;32.80;80.60
33382;DHT22;21342;48.786;9.166;2022-07-22T10:12:38;33.00;80.50
33382;DHT22;21342;48.786;9.166;2022-07-22T10:15:06;32.50;84.90
33382;DHT22;21342;48.786;9.166;2022-07-22T10:17:35;33.20;79.40
33382;DHT22;21342;48.786;9.166;2022-07-22T10:20:05;32.80;80.20
33382;DHT22;21342;48.786;9.166;2022-07-22T10:22:49;32.80;81.00
33382;DHT22;21342;48.786;9.166;2022-07-22T10:25:17;32.70;82.00
33382;DHT22;21342;48.786;9.166;2022-07-22T10:27:46;33.00;80.90
33382;DHT22;21342;48.786;9.166;2022-07-22T10:30:16;33.50;80.50
33382;DHT22;21342;48.786;9.166;2022-07-22T10:32:43;33.10;77.70
33382;DHT22;21342;48.786;9.166;2022-07-22T10:35:25;32.80;80.00
33382;DHT22;21342;48.786;9.166;2022-07-22T10:37:55;32.70;78.70
33382;DHT22;21342;48.786;9.166;2022-07-22T10:40:25;34.00;78.40
33382;DHT22;21342;48.786;9.166;2022-07-22T10:43:09;34.50;76.80
33382;DHT22;21342;48.786;9.166;2022-07-22T10:45:39;34.70;76.10
33382;DHT22;21342;48.786;9.166;2022-07-22T10:48:07;33.90;75.10
33382;DHT22;21342;48.786;9.166;2022-07-22T10:50:40;33.20;76.10
33382;DHT22;21342;48.786;9.166;2022-07-22T10:53:10;34.10;76.20
33382;DHT22;21342;48.786;9.166;2022-07-22T10:55:39;33.10;76.40
33382;DHT22;21342;48.786;9.166;2022-07-22T10:58:43;33.00;76.50
33382;DHT22;21342;48.786;9.166;2022-07-22T11:01:12;33.40;76.20
33382;DHT22;21342;48.786;9.166;2022-07-22T11:03:41;33.90;74.30
33382;DHT22;21342;48.786;9.166;2022-07-22T11:06:14;32.70;75.60
33382;DHT22;21342;48.786;9.166;2022-07-22T11:08:44;32.60;77.00
33382;DHT22;21342;48.786;9.166;2022-07-22T11:11:12;32.60;76.80
33382;DHT22;21342;48.786;9.166;2022-07-22T11:13:40;33.20;76.90
33382;DHT22;21342;48.786;9.166;2022-07-22T11:16:20;33.20;76.70
33382;DHT22;21342;48.786;9.166;2022-07-22T11:18:50;33.00;76.80
33382;DHT22;21342;48.786;9.166;2022-07-22T11:21:18;33.20;75.50
33382;DHT22;21342;48.786;9.166;2022-07-22T11:23:50;33.30;77.30
33382;DHT22;21342;48.786;9.166;2022-07-22T11:26:21;33.90;76.50
33382;DHT22;21342;48.786;9.166;2022-07-22T11:28:51;34.00;74.10
33382;DHT22;21342;48.786;9.166;2022-07-22T11:31:19;33.80;73.30
33382;DHT22;21342;48.786;9.166;2022-07-22T11:33:46;34.30;73.40
33382;DHT22;21342;48.786;9.166;2022-07-22T11:36:14;34.40;72.30
33382;DHT22;21342;48.786;9.166;2022-07-22T11:38:46;33.90;71.70
33382;DHT22;21342;48.786;9.166;2022-07-22T11:41:16;33.50;71.60
33382;DHT22;21342;48.786;9.166;2022-07-22T11:43:45;34.50;73.70
33382;DHT22;21342;48.786;9.166;2022-07-22T11:46:13;34.80;70.60
33382;DHT22;21342;48.786;9.166;2022-07-22T11:48:41;35.20;70.70
33382;DHT22;21342;48.786;9.166;2022-07-22T11:51:10;35.30;70.50
33382;DHT22;21342;48.786;9.166;2022-07-22T11:53:38;35.10;68.90
33382;DHT22;21342;48.786;9.166;2022-07-22T11:56:07;35.00;69.50
33382;DHT22;21342;48.786;9.166;2022-07-22T11:58:38;34.30;65.30
33382;DHT22;21342;48.786;9.166;2022-07-22T12:01:08;33.90;66.00
33382;DHT22;21342;48.786;9.166;2022-07-22T12:03:36;34.60;68.00
33382;DHT22;21342;48.786;9.166;2022-07-22T12:06:06;34.80;64.60
33382;DHT22;21342;48.786;9.166;2022-07-22T12:08:36;35.00;65.10
33382;DHT22;21342;48.786;9.166;2022-07-22T12:11:06;35.30;61.20
33382;DHT22;21342;48.786;9.166;2022-07-22T12:13:33;35.20;60.90
33382;DHT22;21342;48.786;9.166;2022-07-22T12:16:17;34.50;60.50
33382;DHT22;21342;48.786;9.166;2022-07-22T12:18:51;34.50;61.20
33382;DHT22;21342;48.786;9.166;2022-07-22T12:21:19;35.00;63.00
33382;DHT22;21342;48.786;9.166;2022-07-22T12:23:50;34.90;61.80
33382;DHT22;21342;48.786;9.166;2022-07-22T12:26:18;35.40;63.00
33382;DHT22;21342;48.786;9.166;2022-07-22T12:28:45;35.70;60.50
33382;DHT22;21342;48.786;9.166;2022-07-22T12:31:14;35.40;59.30
33382;DHT22;21342;48.786;9.166;2022-07-22T12:33:47;35.00;57.50
33382;DHT22;21342;48.786;9.166;2022-07-22T12:36:15;35.10;57.70
33382;DHT22;21342;48.786;9.166;2022-07-22T12:38:42;34.90;58.50
33382;DHT22;21342;48.786;9.166;2022-07-22T12:41:27;35.30;59.60
33382;DHT22;21342;48.786;9.166;2022-07-22T12:43:55;34.80;58.60
33382;DHT22;21342;48.786;9.166;2022-07-22T12:46:24;34.10;59.20
33382;DHT22;21342;48.786;9.166;2022-07-22T12:48:53;34.50;60.00
33382;DHT22;21342;48.786;9.166;2022-07-22T12:51:23;34.60;57.90
33382;DHT22;21342;48.786;9.166;2022-07-22T12:53:50;34.30;58.10
33382;DHT22;21342;48.786;9.166;2022-07-22T12:56:19;34.40;59.60
33382;DHT22;21342;48.786;9.166;2022-07-22T12:58:47;35.10;57.80
33382;DHT22;21342;48.786;9.166;2022-07-22T13:01:14;34.80;58.00
33382;DHT22;21342;48.786;9.166;2022-07-22T13:03:43;34.60;58.20
33382;DHT22;21342;48.786;9.166;2022-07-22T13:06:10;34.70;57.70
33382;DHT22;21342;48.786;9.166;2022-07-22T13:08:37;34.80;57.40
33382;DHT22;21342;48.786;9.166;2022-07-22T13:11:05;35.00;58.10
33382;DHT22;21342;48.786;9.166;2022-07-22T13:13:32;35.30;58.80
33382;DHT22;21342;48.786;9.166;2022-07-22T13:15:59;35.20;58.50
33382;DHT22;21342;48.786;9.166;2022-07-22T13:18:26;34.80;58.30
33382;DHT22;21342;48.786;9.166;2022-07-22T13:20:55;35.40;59.20
33382;DHT22;21342;48.786;9.166;2022-07-22T13:23:22;35.40;58.10
33382;DHT22;21342;48.786;9.166;2022-07-22T13:25:50;34.80;58.50
33382;DHT22;21342;48.786;9.166;2022-07-22T13:28:17;33.60;58.80
33382;DHT22;21342;48.786;9.166;2022-07-22T13:30:45;33.20;60.10
33382;DHT22;21342;48.786;9.166;2022-07-22T13:33:12;33.60;62.00
33382;DHT22;21342;48.786;9.166;2022-07-22T13:35:41;33.60;61.00
33382;DHT22;21342;48.786;9.166;2022-07-22T13:38:10;33.70;59.40
33382;DHT22;21342;48.786;9.166;2022-07-22T13:40:37;33.60;59.40
33382;DHT22;21342;48.786;9.166;2022-07-22T13:43:04;33.50;59.30
33382;DHT22;21342;48.786;9.166;2022-07-22T13:45:31;33.20;59.50
33382;DHT22;21342;48.786;9.166;2022-07-22T13:47:58;33.10;59.60
33382;DHT22;21342;48.786;9.166;2022-07-22T13:50:26;32.90;61.00
33382;DHT22;21342;48.786;9.166;2022-07-22T13:52:53;32.70;59.70
33382;DHT22;21342;48.786;9.166;2022-07-22T13:55:21;32.40;59.80
33382;DHT22;21342;48.786;9.166;2022-07-22T13:57:49;32.40;59.30
33382;DHT22;21342;48.786;9.166;2022-07-22T14:00:16;32.60;59.70
33382;DHT22;21342;48.786;9.166;2022-07-22T14:02:44;32.70;59.70
33382;DHT22;21342;48.786;9.166;2022-07-22T14:05:11;32.70;58.10
33382;DHT22;21342;48.786;9.166;2022-07-22T14:07:40;32.80;58.60
33382;DHT22;21342;48.786;9.166;2022-07-22T14:10:08;32.70;58.20
33382;DHT22;21342;48.786;9.166;2022-07-22T14:12:36;32.70;58.70
33382;DHT22;21342;48.786;9.166;2022-07-22T14:15:05;32.60;58.40
33382;DHT22;21342;48.786;9.166;2022-07-22T14:17:37;32.60;58.60
33382;DHT22;21342;48.786;9.166;2022-07-22T14:20:05;32.60;58.60
33382;DHT22;21342;48.786;9.166;2022-07-22T14:22:33;32.70;59.00
33382;DHT22;21342;48.786;9.166;2022-07-22T14:25:00;32.90;59.00
33382;DHT22;21342;48.786;9.166;2022-07-22T14:27:28;32.60;59.20
33382;DHT22;21342;48.786;9.166;2022-07-22T14:29:56;32.70;58.60
33382;DHT22;21342;48.786;9.166;2022-07-22T14:32:24;32.70;59.20
33382;DHT22;21342;48.786;9.166;2022-07-22T14:34:52;32.60;59.40
33382;DHT22;21342;48.786;9.166;2022-07-22T14:37:19;32.60;58.60
33382;DHT22;21342;48.786;9.166;2022-07-22T14:39:47;32.50;59.00
33382;DHT22;21342;48.786;9.166;2022-07-22T14:42:15;32.20;58.90
33382;DHT22;21342;48.786;9.166;2022-07-22T14:44:42;32.30;59.20
33382;DHT22;21342;48.786;9.166;2022-07-22T14:47:10;32.10;59.90
33382;DHT22;21342;48.786;9.166;2022-07-22T14:49:37;32.10;59.70
33382;DHT22;21342;48.786;9.166;2022-07-22T14:52:05;32.20;60.00
33382;DHT22;21342;48.786;9.166;2022-07-22T14:54:32;32.00;59.40
33382;DHT22;21342;48.786;9.166;2022-07-22T14:56:59;32.00;58.90
33382;DHT22;21342;48.786;9.166;2022-07-22T14:59:27;32.10;58.70
33382;DHT22;21342;48.786;9.166;2022-07-22T15:01:54;32.10;58.50
33382;DHT22;21342;48.786;9.166;2022-07-22T15:04:23;32.20;59.10
33382;DHT22;21342;48.786;9.166;2022-07-22T15:06:50;32.30;58.40
33382;DHT22;21342;48.786;9.166;2022-07-22T15:09:17;32.30;57.40
33382;DHT22;21342;48.786;9.166;2022-07-22T15:11:45;32.10;57.70
33382;DHT22;21342;48.786;9.166;2022-07-22T15:14:12;32.00;57.50
33382;DHT22;21342;48.786;9.166;2022-07-22T15:16:39;32.20;57.80
33382;DHT22;21342;48.786;9.166;2022-07-22T15:19:06;32.10;58.00
33382;DHT22;21342;48.786;9.166;2022-07-22T15:21:35;32.20;58.20
33382;DHT22;21342;48.786;9.166;2022-07-22T15:24:02;32.20;58.50
33382;DHT22;21342;48.786;9.166;2022-07-22T15:26:29;31.80;58.40
33382;DHT22;21342;48.786;9.166;2022-07-22T15:28:56;31.60;61.70
33382;DHT22;21342;48.786;9.166;2022-07-22T15:31:25;31.90;58.60
33382;DHT22;21342;48.786;9.166;2022-07-22T15:33:53;32.10;59.30
33382;DHT22;21342;48.786;9.166;2022-07-22T15:36:21;32.10;58.30
33382;DHT22;21342;48.786;9.166;2022-07-22T15:38:49;32.00;58.20